sensor_id;sensor_type;location;lat;lon;timestamp;temperature;humidity
71047;SHT31;58703;48.978;8.982;2024-01-16T00:01:45;-0.85;83.55
71047;SHT31;58703;48.978;8.982;2024-01-16T00:04:11;-1.02;84.20
71047;SHT31;58703;48.978;8.982;2024-01-16T00:06:40;-1.00;84.21
71047;SHT31;58703;48.978;8.982;2024-01-16T00:09:06;-0.95;84.27
71047;SHT31;58703;48.978;8.982;2024-01-16T00:11:32;-0.97;84.38
71047;SHT31;58703;48.978;8.982;2024-01-16T00:13:57;-1.06;84.61
71047;SHT31;58703;48.978;8.982;2024-01-16T00:16:23;-0.97;84.50
71047;SHT31;58703;48.978;8.982;2024-01-16T00:18:48;-1.07;84.37
71047;SHT31;58703;48.978;8.982;2024-01-16T00:21:14;-1.03;84.31
71047;SHT31;58703;48.978;8.982;2024-01-16T00:23:40;-0.91;84.19
71047;SHT31;58703;48.978;8.982;2024-01-16T00:26:05;-1.03;84.46
71047;SHT31;58703;48.978;8.982;2024-01-16T00:28:32;-0.97;84.45
71047;SHT31;58703;48.978;8.982;2024-01-16T00:30:57;-0.75;83.78
71047;SHT31;58703;48.978;8.982;2024-01-16T00:33:23;-1.00;84.39
71047;SHT31;58703;48.978;8.982;2024-01-16T00:35:49;-0.84;84.21
71047;SHT31;58703;48.978;8.982;2024-01-16T00:38:15;-1.02;84.09
71047;SHT31;58703;48.978;8.982;2024-01-16T00:40:40;-1.30;85.25
71047;SHT31;58703;48.978;8.982;2024-01-16T00:43:06;-1.42;85.27
71047;SHT31;58703;48.978;8.982;2024-01-16T00:45:31;-1.36;85.67
71047;SHT31;58703;48.978;8.982;2024-01-16T00:47:57;-0.92;84.18
71047;SHT31;58703;48.978;8.982;2024-01-16T00:50:22;-0.99;84.31
71047;SHT31;58703;48.978;8.982;2024-01-16T00:52:49;-0.79;84.14
71047;SHT31;58703;48.978;8.982;2024-01-16T00:55:15;-0.78;84.36
71047;SHT31;58703;48.978;8.982;2024-01-16T00:57:40;-0.76;84.55
71047;SHT31;58703;48.978;8.982;2024-01-16T01:00:07;-0.85;84.57
71047;SHT31;58703;48.978;8.982;2024-01-16T01:02:32;-0.85;84.31
71047;SHT31;58703;48.978;8.982;2024-01-16T01:04:58;-0.95;84.95
71047;SHT31;58703;48.978;8.982;2024-01-16T01:07:24;-1.00;84.86
71047;SHT31;58703;48.978;8.982;2024-01-16T01:09:51;-1.13;85.45
71047;SHT31;58703;48.978;8.982;2024-01-16T01:12:16;-0.89;84.56
71047;SHT31;58703;48.978;8.982;2024-01-16T01:14:42;-0.79;84.48
71047;SHT31;58703;48.978;8.982;2024-01-16T01:17:07;-0.81;84.34
71047;SHT31;58703;48.978;8.982;2024-01-16T01:19:33;-0.88;84.80
71047;SHT31;58703;48.978;8.982;2024-01-16T01:21:58;-0.85;84.80
71047;SHT31;58703;48.978;8.982;2024-01-16T01:24:24;-0.75;84.64
71047;SHT31;58703;48.978;8.982;2024-01-16T01:26:49;-0.61;84.31
71047;SHT31;58703;48.978;8.982;2024-01-16T01:29:15;-0.69;84.54
71047;SHT31;58703;48.978;8.982;2024-01-16T01:31:40;-0.64;84.37
71047;SHT31;58703;48.978;8.982;2024-01-16T01:34:10;-0.64;84.62
71047;SHT31;58703;48.978;8.982;2024-01-16T01:36:35;-0.68;84.51
71047;SHT31;58703;48.978;8.982;2024-01-16T01:39:01;-0.68;84.64
71047;SHT31;58703;48.978;8.982;2024-01-16T01:41:28;-0.48;83.84
71047;SHT31;58703;48.978;8.982;2024-01-16T01:43:53;-0.64;84.31
71047;SHT31;58703;48.978;8.982;2024-01-16T01:46:19;-0.81;84.94
71047;SHT31;58703;48.978;8.982;2024-01-16T01:48:48;-0.65;84.24
71047;SHT31;58703;48.978;8.982;2024-01-16T01:51:14;-0.76;84.64
71047;SHT31;58703;48.978;8.982;2024-01-16T01:53:43;-0.91;84.84
71047;SHT31;58703;48.978;8.982;2024-01-16T01:56:11;-0.93;85.09
71047;SHT31;58703;48.978;8.982;2024-01-16T01:58:39;-0.79;84.55
71047;SHT31;58703;48.978;8.982;2024-01-16T02:01:06;-0.61;83.94
71047;SHT31;58703;48.978;8.982;2024-01-16T02:03:42;-0.76;84.34
71047;SHT31;58703;48.978;8.982;2024-01-16T02:06:09;-0.75;84.49
71047;SHT31;58703;48.978;8.982;2024-01-16T02:08:35;-0.84;84.41
71047;SHT31;58703;48.978;8.982;2024-01-16T02:11:01;-0.92;84.96
71047;SHT31;58703;48.978;8.982;2024-01-16T02:13:27;-0.82;84.46
71047;SHT31;58703;48.978;8.982;2024-01-16T02:15:53;-0.97;84.73
71047;SHT31;58703;48.978;8.982;2024-01-16T02:18:18;-0.93;84.81
71047;SHT31;58703;48.978;8.982;2024-01-16T02:20:45;-0.91;84.88
71047;SHT31;58703;48.978;8.982;2024-01-16T02:23:13;-0.99;84.97
71047;SHT31;58703;48.978;8.982;2024-01-16T02:25:41;-1.12;85.16
71047;SHT31;58703;48.978;8.982;2024-01-16T02:28:06;-1.25;85.59
71047;SHT31;58703;48.978;8.982;2024-01-16T02:30:32;-1.33;86.00
71047;SHT31;58703;48.978;8.982;2024-01-16T02:32:58;-1.32;86.01
71047;SHT31;58703;48.978;8.982;2024-01-16T02:35:23;-1.43;85.88
71047;SHT31;58703;48.978;8.982;2024-01-16T02:37:49;-1.36;86.16
71047;SHT31;58703;48.978;8.982;2024-01-16T02:40:15;-1.43;86.27
71047;SHT31;58703;48.978;8.982;2024-01-16T02:42:40;-1.44;85.64
71047;SHT31;58703;48.978;8.982;2024-01-16T02:45:06;-1.47;85.97
71047;SHT31;58703;48.978;8.982;2024-01-16T02:47:32;-1.58;85.97
71047;SHT31;58703;48.978;8.982;2024-01-16T02:49:59;-1.39;85.53
71047;SHT31;58703;48.978;8.982;2024-01-16T02:52:24;-1.58;85.79
71047;SHT31;58703;48.978;8.982;2024-01-16T02:54:50;-1.48;85.72
71047;SHT31;58703;48.978;8.982;2024-01-16T02:57:15;-1.26;85.44
71047;SHT31;58703;48.978;8.982;2024-01-16T02:59:44;-1.54;85.78
71047;SHT31;58703;48.978;8.982;2024-01-16T03:02:10;-1.43;85.65
71047;SHT31;58703;48.978;8.982;2024-01-16T03:04:37;-1.26;85.23
71047;SHT31;58703;48.978;8.982;2024-01-16T03:07:02;-1.33;85.31
71047;SHT31;58703;48.978;8.982;2024-01-16T03:09:28;-1.23;85.03
71047;SHT31;58703;48.978;8.982;2024-01-16T03:11:54;-1.29;84.96
71047;SHT31;58703;48.978;8.982;2024-01-16T03:14:19;-1.26;85.19
71047;SHT31;58703;48.978;8.982;2024-01-16T03:16:45;-1.32;85.39
71047;SHT31;58703;48.978;8.982;2024-01-16T03:19:12;-1.32;85.18
71047;SHT31;58703;48.978;8.982;2024-01-16T03:21:37;-1.42;85.73
71047;SHT31;58703;48.978;8.982;2024-01-16T03:24:05;-1.16;85.39
71047;SHT31;58703;48.978;8.982;2024-01-16T03:26:31;-1.07;85.14
71047;SHT31;58703;48.978;8.982;2024-01-16T03:28:57;-0.96;84.85
71047;SHT31;58703;48.978;8.982;2024-01-16T03:31:23;-1.13;85.27
71047;SHT31;58703;48.978;8.982;2024-01-16T03:33:49;-1.02;84.98
71047;SHT31;58703;48.978;8.982;2024-01-16T03:36:14;-0.97;84.98
71047;SHT31;58703;48.978;8.982;2024-01-16T03:38:44;-1.00;85.06
71047;SHT31;58703;48.978;8.982;2024-01-16T03:41:12;-0.97;84.82
71047;SHT31;58703;48.978;8.982;2024-01-16T03:43:39;-1.00;85.31
71047;SHT31;58703;48.978;8.982;2024-01-16T03:46:04;-0.97;85.05
71047;SHT31;58703;48.978;8.982;2024-01-16T03:48:30;-0.84;84.41
71047;SHT31;58703;48.978;8.982;2024-01-16T03:50:56;-0.95;84.77
71047;SHT31;58703;48.978;8.982;2024-01-16T03:53:22;-0.96;84.88
71047;SHT31;58703;48.978;8.982;2024-01-16T03:55:48;-0.91;84.49
71047;SHT31;58703;48.978;8.982;2024-01-16T03:58:15;-0.99;84.81
71047;SHT31;58703;48.978;8.982;2024-01-16T04:00:41;-0.96;84.73
71047;SHT31;58703;48.978;8.982;2024-01-16T04:03:07;-1.07;84.97
71047;SHT31;58703;48.978;8.982;2024-01-16T04:05:33;-1.25;85.31
71047;SHT31;58703;48.978;8.982;2024-01-16T04:07:58;-1.40;86.44
71047;SHT31;58703;48.978;8.982;2024-01-16T04:10:24;-1.54;86.84
71047;SHT31;58703;48.978;8.982;2024-01-16T04:12:50;-1.57;86.65
71047;SHT31;58703;48.978;8.982;2024-01-16T04:15:15;-1.53;86.45
71047;SHT31;58703;48.978;8.982;2024-01-16T04:17:41;-1.56;86.53
71047;SHT31;58703;48.978;8.982;2024-01-16T04:20:07;-1.56;86.42
71047;SHT31;58703;48.978;8.982;2024-01-16T04:22:33;-1.64;86.72
71047;SHT31;58703;48.978;8.982;2024-01-16T04:24:58;-1.81;87.28
71047;SHT31;58703;48.978;8.982;2024-01-16T04:27:24;-1.97;87.87
71047;SHT31;58703;48.978;8.982;2024-01-16T04:29:50;-2.15;88.12
71047;SHT31;58703;48.978;8.982;2024-01-16T04:32:16;-2.18;88.53
71047;SHT31;58703;48.978;8.982;2024-01-16T04:34:42;-2.26;88.34
71047;SHT31;58703;48.978;8.982;2024-01-16T04:37:07;-2.38;88.87
71047;SHT31;58703;48.978;8.982;2024-01-16T04:39:33;-2.49;89.01
71047;SHT31;58703;48.978;8.982;2024-01-16T04:41:58;-2.29;88.11
71047;SHT31;58703;48.978;8.982;2024-01-16T04:44:24;-2.15;87.94
71047;SHT31;58703;48.978;8.982;2024-01-16T04:46:49;-2.33;88.25
71047;SHT31;58703;48.978;8.982;2024-01-16T04:49:15;-2.48;88.70
71047;SHT31;58703;48.978;8.982;2024-01-16T04:51:40;-2.67;89.31
71047;SHT31;58703;48.978;8.982;2024-01-16T04:54:07;-2.80;89.95
71047;SHT31;58703;48.978;8.982;2024-01-16T04:56:32;-3.01;90.46
71047;SHT31;58703;48.978;8.982;2024-01-16T04:58:58;-3.34;91.23
71047;SHT31;58703;48.978;8.982;2024-01-16T05:01:24;-3.12;90.81
71047;SHT31;58703;48.978;8.982;2024-01-16T05:03:50;-3.09;90.24
71047;SHT31;58703;48.978;8.982;2024-01-16T05:06:16;-3.03;90.28
71047;SHT31;58703;48.978;8.982;2024-01-16T05:08:42;-3.00;89.83
71047;SHT31;58703;48.978;8.982;2024-01-16T05:11:08;-3.18;89.93
71047;SHT31;58703;48.978;8.982;2024-01-16T05:13:34;-3.22;90.15
71047;SHT31;58703;48.978;8.982;2024-01-16T05:16:00;-3.28;90.78
71047;SHT31;58703;48.978;8.982;2024-01-16T05:18:25;-3.30;91.07
71047;SHT31;58703;48.978;8.982;2024-01-16T05:20:50;-3.35;90.75
71047;SHT31;58703;48.978;8.982;2024-01-16T05:23:16;-3.38;90.45
71047;SHT31;58703;48.978;8.982;2024-01-16T05:25:43;-3.48;90.82
71047;SHT31;58703;48.978;8.982;2024-01-16T05:28:09;-3.54;90.66
71047;SHT31;58703;48.978;8.982;2024-01-16T05:30:34;-3.51;90.79
71047;SHT31;58703;48.978;8.982;2024-01-16T05:33:00;-3.70;91.24
71047;SHT31;58703;48.978;8.982;2024-01-16T05:35:27;-3.65;92.10
71047;SHT31;58703;48.978;8.982;2024-01-16T05:37:53;-3.89;92.68
71047;SHT31;58703;48.978;8.982;2024-01-16T05:40:19;-3.96;93.60
71047;SHT31;58703;48.978;8.982;2024-01-16T05:42:45;-3.97;93.59
71047;SHT31;58703;48.978;8.982;2024-01-16T05:45:10;-3.91;93.01
71047;SHT31;58703;48.978;8.982;2024-01-16T05:47:36;-3.79;92.48
71047;SHT31;58703;48.978;8.982;2024-01-16T05:50:02;-3.93;92.55
71047;SHT31;58703;48.978;8.982;2024-01-16T05:52:27;-4.22;92.24
71047;SHT31;58703;48.978;8.982;2024-01-16T05:54:53;-4.31;93.11
71047;SHT31;58703;48.978;8.982;2024-01-16T05:57:23;-4.31;93.15
71047;SHT31;58703;48.978;8.982;2024-01-16T05:59:48;-4.17;93.79
71047;SHT31;58703;48.978;8.982;2024-01-16T06:02:14;-4.17;93.35
71047;SHT31;58703;48.978;8.982;2024-01-16T06:04:39;-4.06;94.10
71047;SHT31;58703;48.978;8.982;2024-01-16T06:07:05;-4.01;92.89
71047;SHT31;58703;48.978;8.982;2024-01-16T06:09:33;-4.03;92.59
71047;SHT31;58703;48.978;8.982;2024-01-16T06:11:59;-3.99;93.46
71047;SHT31;58703;48.978;8.982;2024-01-16T06:14:24;-3.96;92.73
71047;SHT31;58703;48.978;8.982;2024-01-16T06:16:50;-3.94;92.63
71047;SHT31;58703;48.978;8.982;2024-01-16T06:19:16;-3.87;93.66
71047;SHT31;58703;48.978;8.982;2024-01-16T06:21:42;-3.82;93.04
71047;SHT31;58703;48.978;8.982;2024-01-16T06:24:08;-3.80;92.44
71047;SHT31;58703;48.978;8.982;2024-01-16T06:26:33;-3.87;92.73
71047;SHT31;58703;48.978;8.982;2024-01-16T06:28:59;-3.87;93.97
71047;SHT31;58703;48.978;8.982;2024-01-16T06:31:24;-3.89;94.05
71047;SHT31;58703;48.978;8.982;2024-01-16T06:33:52;-3.90;93.70
71047;SHT31;58703;48.978;8.982;2024-01-16T06:36:17;-3.91;93.60
71047;SHT31;58703;48.978;8.982;2024-01-16T06:38:43;-3.89;92.97
71047;SHT31;58703;48.978;8.982;2024-01-16T06:41:08;-3.90;93.70
71047;SHT31;58703;48.978;8.982;2024-01-16T06:43:34;-3.94;93.05
71047;SHT31;58703;48.978;8.982;2024-01-16T06:45:59;-4.00;93.64
71047;SHT31;58703;48.978;8.982;2024-01-16T06:48:26;-4.10;93.77
71047;SHT31;58703;48.978;8.982;2024-01-16T06:50:51;-4.20;93.67
71047;SHT31;58703;48.978;8.982;2024-01-16T06:53:17;-4.37;93.98
71047;SHT31;58703;48.978;8.982;2024-01-16T06:55:42;-4.42;94.62
71047;SHT31;58703;48.978;8.982;2024-01-16T06:58:08;-4.34;94.75
71047;SHT31;58703;48.978;8.982;2024-01-16T07:00:35;-4.30;94.58
71047;SHT31;58703;48.978;8.982;2024-01-16T07:03:01;-4.17;94.49
71047;SHT31;58703;48.978;8.982;2024-01-16T07:05:28;-3.90;96.81
71047;SHT31;58703;48.978;8.982;2024-01-16T07:07:55;-3.41;97.38
71047;SHT31;58703;48.978;8.982;2024-01-16T07:10:20;-3.49;95.78
71047;SHT31;58703;48.978;8.982;2024-01-16T07:12:48;-3.49;94.21
71047;SHT31;58703;48.978;8.982;2024-01-16T07:15:15;-3.70;93.11
71047;SHT31;58703;48.978;8.982;2024-01-16T07:17:41;-4.03;93.55
71047;SHT31;58703;48.978;8.982;2024-01-16T07:20:06;-4.10;94.66
71047;SHT31;58703;48.978;8.982;2024-01-16T07:22:33;-4.11;94.78
71047;SHT31;58703;48.978;8.982;2024-01-16T07:25:00;-4.15;94.71
71047;SHT31;58703;48.978;8.982;2024-01-16T07:27:26;-4.13;95.08
71047;SHT31;58703;48.978;8.982;2024-01-16T07:29:51;-4.20;94.61
71047;SHT31;58703;48.978;8.982;2024-01-16T07:32:17;-4.31;95.19
71047;SHT31;58703;48.978;8.982;2024-01-16T07:34:44;-4.21;95.42
71047;SHT31;58703;48.978;8.982;2024-01-16T07:37:09;-4.01;95.65
71047;SHT31;58703;48.978;8.982;2024-01-16T07:39:35;-4.13;94.79
71047;SHT31;58703;48.978;8.982;2024-01-16T07:42:01;-4.06;94.68
71047;SHT31;58703;48.978;8.982;2024-01-16T07:44:26;-3.83;94.87
71047;SHT31;58703;48.978;8.982;2024-01-16T07:46:52;-3.60;94.23
71047;SHT31;58703;48.978;8.982;2024-01-16T07:49:17;-3.65;93.64
71047;SHT31;58703;48.978;8.982;2024-01-16T07:51:43;-3.69;93.85
71047;SHT31;58703;48.978;8.982;2024-01-16T07:54:09;-3.60;93.88
71047;SHT31;58703;48.978;8.982;2024-01-16T07:56:36;-3.55;93.09
71047;SHT31;58703;48.978;8.982;2024-01-16T07:59:03;-3.60;92.72
71047;SHT31;58703;48.978;8.982;2024-01-16T08:01:29;-3.60;92.92
71047;SHT31;58703;48.978;8.982;2024-01-16T08:03:55;-3.44;93.41
71047;SHT31;58703;48.978;8.982;2024-01-16T08:06:21;-3.19;91.79
71047;SHT31;58703;48.978;8.982;2024-01-16T08:08:47;-3.17;91.04
71047;SHT31;58703;48.978;8.982;2024-01-16T08:11:14;-3.30;91.26
71047;SHT31;58703;48.978;8.982;2024-01-16T08:13:40;-3.05;92.15
71047;SHT31;58703;48.978;8.982;2024-01-16T08:16:06;-2.90;91.87
71047;SHT31;58703;48.978;8.982;2024-01-16T08:18:31;-2.80;90.86
71047;SHT31;58703;48.978;8.982;2024-01-16T08:20:57;-2.85;90.49
71047;SHT31;58703;48.978;8.982;2024-01-16T08:23:23;-2.73;91.51
71047;SHT31;58703;48.978;8.982;2024-01-16T08:25:48;-2.46;91.85
71047;SHT31;58703;48.978;8.982;2024-01-16T08:28:14;-2.35;90.58
71047;SHT31;58703;48.978;8.982;2024-01-16T08:30:40;-2.22;90.09
71047;SHT31;58703;48.978;8.982;2024-01-16T08:33:06;-2.16;91.14
71047;SHT31;58703;48.978;8.982;2024-01-16T08:35:32;-2.45;89.08
71047;SHT31;58703;48.978;8.982;2024-01-16T08:37:58;-2.31;88.76
71047;SHT31;58703;48.978;8.982;2024-01-16T08:40:24;-2.18;90.55
71047;SHT31;58703;48.978;8.982;2024-01-16T08:42:49;-2.08;88.89
71047;SHT31;58703;48.978;8.982;2024-01-16T08:45:23;-2.25;87.87
71047;SHT31;58703;48.978;8.982;2024-01-16T08:47:49;-2.16;89.34
71047;SHT31;58703;48.978;8.982;2024-01-16T08:50:15;-1.78;89.11
71047;SHT31;58703;48.978;8.982;2024-01-16T08:52:41;-1.54;88.61
71047;SHT31;58703;48.978;8.982;2024-01-16T08:55:07;-1.42;87.99
71047;SHT31;58703;48.978;8.982;2024-01-16T08:57:34;-1.27;87.60
71047;SHT31;58703;48.978;8.982;2024-01-16T09:00:00;-1.32;87.10
71047;SHT31;58703;48.978;8.982;2024-01-16T09:02:26;-1.25;87.45
71047;SHT31;58703;48.978;8.982;2024-01-16T09:04:55;-0.99;86.78
71047;SHT31;58703;48.978;8.982;2024-01-16T09:07:20;-0.81;86.47
71047;SHT31;58703;48.978;8.982;2024-01-16T09:09:46;-1.09;84.51
71047;SHT31;58703;48.978;8.982;2024-01-16T09:12:11;-1.43;83.27
71047;SHT31;58703;48.978;8.982;2024-01-16T09:14:37;-1.36;82.69
71047;SHT31;58703;48.978;8.982;2024-01-16T09:17:03;-1.32;82.20
71047;SHT31;58703;48.978;8.982;2024-01-16T09:19:29;-1.13;81.89
71047;SHT31;58703;48.978;8.982;2024-01-16T09:21:55;-1.20;80.88
71047;SHT31;58703;48.978;8.982;2024-01-16T09:24:21;-1.26;81.31
71047;SHT31;58703;48.978;8.982;2024-01-16T09:26:47;-1.16;81.07
71047;SHT31;58703;48.978;8.982;2024-01-16T09:29:12;-0.88;84.29
71047;SHT31;58703;48.978;8.982;2024-01-16T09:31:40;-0.65;84.32
71047;SHT31;58703;48.978;8.982;2024-01-16T09:34:06;-0.41;84.42
71047;SHT31;58703;48.978;8.982;2024-01-16T09:36:32;-0.28;82.43
71047;SHT31;58703;48.978;8.982;2024-01-16T09:38:57;0.04;82.73
71047;SHT31;58703;48.978;8.982;2024-01-16T09:41:23;0.27;80.42
71047;SHT31;58703;48.978;8.982;2024-01-16T09:43:49;0.50;79.98
71047;SHT31;58703;48.978;8.982;2024-01-16T09:46:17;0.64;80.23
71047;SHT31;58703;48.978;8.982;2024-01-16T09:48:45;0.62;78.55
71047;SHT31;58703;48.978;8.982;2024-01-16T09:51:12;0.81;80.21
71047;SHT31;58703;48.978;8.982;2024-01-16T09:53:41;0.78;78.79
71047;SHT31;58703;48.978;8.982;2024-01-16T09:56:15;0.89;75.83
71047;SHT31;58703;48.978;8.982;2024-01-16T09:58:43;1.04;77.18
71047;SHT31;58703;48.978;8.982;2024-01-16T10:01:11;1.16;78.60
71047;SHT31;58703;48.978;8.982;2024-01-16T10:03:37;1.17;77.04
71047;SHT31;58703;48.978;8.982;2024-01-16T10:06:06;1.20;75.73
71047;SHT31;58703;48.978;8.982;2024-01-16T10:08:32;1.33;75.79
71047;SHT31;58703;48.978;8.982;2024-01-16T10:10:59;0.91;75.65
71047;SHT31;58703;48.978;8.982;2024-01-16T10:13:25;0.76;77.65
71047;SHT31;58703;48.978;8.982;2024-01-16T10:15:52;0.52;76.87
71047;SHT31;58703;48.978;8.982;2024-01-16T10:18:22;1.00;77.36
71047;SHT31;58703;48.978;8.982;2024-01-16T10:20:49;0.99;75.05
71047;SHT31;58703;48.978;8.982;2024-01-16T10:23:22;1.17;75.00
71047;SHT31;58703;48.978;8.982;2024-01-16T10:26:04;1.95;74.08
71047;SHT31;58703;48.978;8.982;2024-01-16T10:28:30;2.54;75.44
71047;SHT31;58703;48.978;8.982;2024-01-16T10:31:09;2.96;71.18
71047;SHT31;58703;48.978;8.982;2024-01-16T10:33:35;2.67;72.22
71047;SHT31;58703;48.978;8.982;2024-01-16T10:36:23;2.83;69.17
71047;SHT31;58703;48.978;8.982;2024-01-16T10:38:50;3.22;71.99
71047;SHT31;58703;48.978;8.982;2024-01-16T10:41:23;2.70;68.73
71047;SHT31;58703;48.978;8.982;2024-01-16T10:44:07;2.59;71.47
71047;SHT31;58703;48.978;8.982;2024-01-16T10:46:33;3.08;74.80
71047;SHT31;58703;48.978;8.982;2024-01-16T10:49:00;2.57;71.44
71047;SHT31;58703;48.978;8.982;2024-01-16T10:51:27;2.67;73.39
71047;SHT31;58703;48.978;8.982;2024-01-16T10:53:58;2.91;74.98
71047;SHT31;58703;48.978;8.982;2024-01-16T10:56:24;3.07;69.42
71047;SHT31;58703;48.978;8.982;2024-01-16T10:59:00;2.99;69.67
71047;SHT31;58703;48.978;8.982;2024-01-16T11:01:30;2.57;71.21
71047;SHT31;58703;48.978;8.982;2024-01-16T11:03:57;2.39;68.87
71047;SHT31;58703;48.978;8.982;2024-01-16T11:06:24;2.81;68.42
71047;SHT31;58703;48.978;8.982;2024-01-16T11:08:52;2.50;70.16
71047;SHT31;58703;48.978;8.982;2024-01-16T11:11:17;2.77;68.61
71047;SHT31;58703;48.978;8.982;2024-01-16T11:13:45;3.04;68.59
71047;SHT31;58703;48.978;8.982;2024-01-16T11:16:11;3.05;68.08
71047;SHT31;58703;48.978;8.982;2024-01-16T11:18:37;3.01;67.73
71047;SHT31;58703;48.978;8.982;2024-01-16T11:21:06;3.35;66.46
71047;SHT31;58703;48.978;8.982;2024-01-16T11:23:32;3.86;64.33
71047;SHT31;58703;48.978;8.982;2024-01-16T11:25:58;3.82;65.87
71047;SHT31;58703;48.978;8.982;2024-01-16T11:28:28;3.45;65.92
71047;SHT31;58703;48.978;8.982;2024-01-16T11:30:55;3.46;65.89
71047;SHT31;58703;48.978;8.982;2024-01-16T11:35:56;4.54;70.26
71047;SHT31;58703;48.978;8.982;2024-01-16T11:38:23;5.01;63.00
71047;SHT31;58703;48.978;8.982;2024-01-16T11:40:49;4.27;63.46
71047;SHT31;58703;48.978;8.982;2024-01-16T11:48:30;5.63;64.63
71047;SHT31;58703;48.978;8.982;2024-01-16T11:50:55;5.74;66.68
71047;SHT31;58703;48.978;8.982;2024-01-16T11:59:17;4.30;62.55
71047;SHT31;58703;48.978;8.982;2024-01-16T12:01:45;5.12;70.56
71047;SHT31;58703;48.978;8.982;2024-01-16T12:04:10;5.36;68.97
71047;SHT31;58703;48.978;8.982;2024-01-16T12:06:37;5.57;65.62
71047;SHT31;58703;48.978;8.982;2024-01-16T12:09:16;5.11;63.44
71047;SHT31;58703;48.978;8.982;2024-01-16T12:11:44;5.02;66.05
71047;SHT31;58703;48.978;8.982;2024-01-16T12:14:11;5.04;67.04
71047;SHT31;58703;48.978;8.982;2024-01-16T12:16:37;5.36;62.88
71047;SHT31;58703;48.978;8.982;2024-01-16T12:19:07;5.69;67.80
71047;SHT31;58703;48.978;8.982;2024-01-16T12:21:41;5.74;63.52
71047;SHT31;58703;48.978;8.982;2024-01-16T12:24:07;5.04;62.89
71047;SHT31;58703;48.978;8.982;2024-01-16T12:26:32;4.44;61.53
71047;SHT31;58703;48.978;8.982;2024-01-16T12:28:58;4.27;62.76
71047;SHT31;58703;48.978;8.982;2024-01-16T12:31:24;5.08;65.92
71047;SHT31;58703;48.978;8.982;2024-01-16T12:33:51;5.49;65.51
71047;SHT31;58703;48.978;8.982;2024-01-16T12:36:17;6.17;66.54
71047;SHT31;58703;48.978;8.982;2024-01-16T12:38:42;6.36;61.51
71047;SHT31;58703;48.978;8.982;2024-01-16T12:41:09;6.28;62.13
71047;SHT31;58703;48.978;8.982;2024-01-16T12:43:35;6.64;63.32
71047;SHT31;58703;48.978;8.982;2024-01-16T12:46:02;6.29;61.60
71047;SHT31;58703;48.978;8.982;2024-01-16T12:48:28;5.91;68.17
71047;SHT31;58703;48.978;8.982;2024-01-16T12:51:01;5.63;65.97
71047;SHT31;58703;48.978;8.982;2024-01-16T12:53:32;5.73;69.63
71047;SHT31;58703;48.978;8.982;2024-01-16T12:56:00;5.20;65.27
71047;SHT31;58703;48.978;8.982;2024-01-16T12:58:35;4.98;61.95
71047;SHT31;58703;48.978;8.982;2024-01-16T13:03:49;4.07;65.76
71047;SHT31;58703;48.978;8.982;2024-01-16T13:06:18;4.13;63.38
71047;SHT31;58703;48.978;8.982;2024-01-16T13:09:05;5.84;65.65
71047;SHT31;58703;48.978;8.982;2024-01-16T13:11:52;4.67;60.72
71047;SHT31;58703;48.978;8.982;2024-01-16T13:14:20;4.36;62.14
71047;SHT31;58703;48.978;8.982;2024-01-16T13:16:46;4.23;63.50
71047;SHT31;58703;48.978;8.982;2024-01-16T13:19:16;5.44;66.59
71047;SHT31;58703;48.978;8.982;2024-01-16T13:21:42;6.56;68.61
71047;SHT31;58703;48.978;8.982;2024-01-16T13:24:07;6.42;62.84
71047;SHT31;58703;48.978;8.982;2024-01-16T13:26:33;6.41;64.05
71047;SHT31;58703;48.978;8.982;2024-01-16T13:29:00;6.00;63.35
71047;SHT31;58703;48.978;8.982;2024-01-16T13:31:25;5.67;61.10
71047;SHT31;58703;48.978;8.982;2024-01-16T13:33:51;6.31;60.75
71047;SHT31;58703;48.978;8.982;2024-01-16T13:36:16;7.04;65.65
71047;SHT31;58703;48.978;8.982;2024-01-16T13:38:42;6.07;58.39
71047;SHT31;58703;48.978;8.982;2024-01-16T13:41:08;6.25;61.69
71047;SHT31;58703;48.978;8.982;2024-01-16T13:43:33;6.15;57.28
71047;SHT31;58703;48.978;8.982;2024-01-16T13:45:59;6.56;58.81
71047;SHT31;58703;48.978;8.982;2024-01-16T13:48:24;6.15;57.84
71047;SHT31;58703;48.978;8.982;2024-01-16T13:50:50;6.44;58.26
71047;SHT31;58703;48.978;8.982;2024-01-16T13:53:16;6.24;61.65
71047;SHT31;58703;48.978;8.982;2024-01-16T13:55:42;5.22;55.80
71047;SHT31;58703;48.978;8.982;2024-01-16T13:58:08;4.65;57.62
71047;SHT31;58703;48.978;8.982;2024-01-16T14:00:33;4.54;59.50
71047;SHT31;58703;48.978;8.982;2024-01-16T14:02:59;4.68;59.03
71047;SHT31;58703;48.978;8.982;2024-01-16T14:05:25;4.33;57.57
71047;SHT31;58703;48.978;8.982;2024-01-16T14:07:52;4.21;58.68
71047;SHT31;58703;48.978;8.982;2024-01-16T14:10:19;3.92;57.48
71047;SHT31;58703;48.978;8.982;2024-01-16T14:12:46;3.58;59.05
71047;SHT31;58703;48.978;8.982;2024-01-16T14:15:13;3.52;60.24
71047;SHT31;58703;48.978;8.982;2024-01-16T14:17:51;3.75;59.50
71047;SHT31;58703;48.978;8.982;2024-01-16T14:20:18;3.92;60.41
71047;SHT31;58703;48.978;8.982;2024-01-16T14:22:46;4.14;58.12
71047;SHT31;58703;48.978;8.982;2024-01-16T14:25:13;4.46;59.45
71047;SHT31;58703;48.978;8.982;2024-01-16T14:27:41;4.82;56.78
71047;SHT31;58703;48.978;8.982;2024-01-16T14:30:12;4.61;57.13
71047;SHT31;58703;48.978;8.982;2024-01-16T14:32:42;4.81;58.06
71047;SHT31;58703;48.978;8.982;2024-01-16T14:35:10;4.85;57.44
71047;SHT31;58703;48.978;8.982;2024-01-16T14:37:37;5.05;56.48
71047;SHT31;58703;48.978;8.982;2024-01-16T14:40:04;5.15;55.48
71047;SHT31;58703;48.978;8.982;2024-01-16T14:42:39;5.35;56.92
71047;SHT31;58703;48.978;8.982;2024-01-16T14:45:06;5.66;56.01
71047;SHT31;58703;48.978;8.982;2024-01-16T14:47:31;5.26;56.09
71047;SHT31;58703;48.978;8.982;2024-01-16T14:49:57;5.08;55.83
71047;SHT31;58703;48.978;8.982;2024-01-16T14:52:23;5.16;56.08
71047;SHT31;58703;48.978;8.982;2024-01-16T14:54:49;5.28;56.87
71047;SHT31;58703;48.978;8.982;2024-01-16T14:57:16;5.39;56.63
71047;SHT31;58703;48.978;8.982;2024-01-16T14:59:42;5.01;56.26
71047;SHT31;58703;48.978;8.982;2024-01-16T15:02:08;4.88;56.30
71047;SHT31;58703;48.978;8.982;2024-01-16T15:04:42;4.84;56.93
71047;SHT31;58703;48.978;8.982;2024-01-16T15:07:11;4.69;56.67
71047;SHT31;58703;48.978;8.982;2024-01-16T15:09:36;4.81;56.98
71047;SHT31;58703;48.978;8.982;2024-01-16T15:12:05;4.75;56.66
71047;SHT31;58703;48.978;8.982;2024-01-16T15:14:32;4.74;57.21
71047;SHT31;58703;48.978;8.982;2024-01-16T15:16:58;4.48;56.52
71047;SHT31;58703;48.978;8.982;2024-01-16T15:19:23;4.62;57.51
71047;SHT31;58703;48.978;8.982;2024-01-16T15:21:49;4.14;58.17
71047;SHT31;58703;48.978;8.982;2024-01-16T15:24:14;3.62;58.95
71047;SHT31;58703;48.978;8.982;2024-01-16T15:26:45;2.76;61.75
71047;SHT31;58703;48.978;8.982;2024-01-16T15:29:11;2.21;63.83
71047;SHT31;58703;48.978;8.982;2024-01-16T15:31:37;1.60;65.51
71047;SHT31;58703;48.978;8.982;2024-01-16T15:34:03;1.10;67.26
71047;SHT31;58703;48.978;8.982;2024-01-16T15:36:28;0.82;68.20
71047;SHT31;58703;48.978;8.982;2024-01-16T15:38:54;0.66;68.51
71047;SHT31;58703;48.978;8.982;2024-01-16T15:41:19;0.52;72.30
71047;SHT31;58703;48.978;8.982;2024-01-16T15:43:45;0.61;74.60
71047;SHT31;58703;48.978;8.982;2024-01-16T15:46:11;0.62;78.82
71047;SHT31;58703;48.978;8.982;2024-01-16T15:48:37;0.13;74.99
71047;SHT31;58703;48.978;8.982;2024-01-16T15:51:03;-0.40;76.53